sensor_id;sensor_type;location;lat;lon;timestamp;P1;durP1;ratioP1;P2;durP2;ratioP2
66874;SDS011;53784;52.630;4.896;2023-07-30T00:00:30;18.27;;;3.28;;
66874;SDS011;53784;52.630;4.896;2023-07-30T00:02:56;18.35;;;3.85;;
66874;SDS011;53784;52.630;4.896;2023-07-30T00:05:21;22.77;;;4.22;;
66874;SDS011;53784;52.630;4.896;2023-07-30T00:07:46;21.45;;;3.83;;
66874;SDS011;53784;52.630;4.896;2023-07-30T00:10:12;19.02;;;3.60;;
66874;SDS011;53784;52.630;4.896;2023-07-30T00:12:37;21.27;;;3.80;;
66874;SDS011;53784;52.630;4.896;2023-07-30T00:15:02;19.80;;;4.00;;
66874;SDS011;53784;52.630;4.896;2023-07-30T00:17:28;23.52;;;3.72;;
66874;SDS011;53784;52.630;4.896;2023-07-30T00:19:53;19.58;;;3.70;;
66874;SDS011;53784;52.630;4.896;2023-07-30T00:22:18;20.23;;;3.50;;
66874;SDS011;53784;52.630;4.896;2023-07-30T00:24:44;18.75;;;3.90;;
66874;SDS011;53784;52.630;4.896;2023-07-30T00:27:09;20.13;;;3.63;;
66874;SDS011;53784;52.630;4.896;2023-07-30T00:29:34;20.90;;;3.50;;
66874;SDS011;53784;52.630;4.896;2023-07-30T00:31:59;23.08;;;3.58;;
66874;SDS011;53784;52.630;4.896;2023-07-30T00:34:25;20.08;;;3.38;;
66874;SDS011;53784;52.630;4.896;2023-07-30T00:36:50;20.30;;;3.90;;
66874;SDS011;53784;52.630;4.896;2023-07-30T00:39:15;19.90;;;3.70;;
66874;SDS011;53784;52.630;4.896;2023-07-30T00:41:41;20.50;;;3.58;;
66874;SDS011;53784;52.630;4.896;2023-07-30T00:44:06;20.83;;;4.18;;
66874;SDS011;53784;52.630;4.896;2023-07-30T00:46:32;16.50;;;3.42;;
66874;SDS011;53784;52.630;4.896;2023-07-30T00:48:57;19.63;;;3.53;;
66874;SDS011;53784;52.630;4.896;2023-07-30T00:51:23;22.77;;;4.00;;
66874;SDS011;53784;52.630;4.896;2023-07-30T00:53:49;16.00;;;3.30;;
66874;SDS011;53784;52.630;4.896;2023-07-30T00:56:14;18.90;;;3.42;;
66874;SDS011;53784;52.630;4.896;2023-07-30T00:58:40;23.13;;;3.20;;
66874;SDS011;53784;52.630;4.896;2023-07-30T01:01:06;20.23;;;3.30;;
66874;SDS011;53784;52.630;4.896;2023-07-30T01:03:32;15.25;;;2.70;;
66874;SDS011;53784;52.630;4.896;2023-07-30T01:05:57;15.63;;;2.85;;
66874;SDS011;53784;52.630;4.896;2023-07-30T01:08:22;17.50;;;3.67;;
66874;SDS011;53784;52.630;4.896;2023-07-30T01:10:48;19.05;;;3.05;;
66874;SDS011;53784;52.630;4.896;2023-07-30T01:13:13;13.77;;;2.72;;
66874;SDS011;53784;52.630;4.896;2023-07-30T01:15:40;16.52;;;2.90;;
66874;SDS011;53784;52.630;4.896;2023-07-30T01:18:06;14.35;;;2.83;;
66874;SDS011;53784;52.630;4.896;2023-07-30T01:20:31;18.00;;;3.60;;
66874;SDS011;53784;52.630;4.896;2023-07-30T01:22:58;17.80;;;3.17;;
66874;SDS011;53784;52.630;4.896;2023-07-30T01:25:24;20.33;;;3.55;;
66874;SDS011;53784;52.630;4.896;2023-07-30T01:27:51;16.05;;;3.08;;
66874;SDS011;53784;52.630;4.896;2023-07-30T01:30:17;17.95;;;3.10;;
66874;SDS011;53784;52.630;4.896;2023-07-30T01:32:48;17.63;;;3.17;;
66874;SDS011;53784;52.630;4.896;2023-07-30T01:35:14;16.55;;;3.17;;
66874;SDS011;53784;52.630;4.896;2023-07-30T01:37:40;18.90;;;3.25;;
66874;SDS011;53784;52.630;4.896;2023-07-30T01:40:06;18.77;;;3.10;;
66874;SDS011;53784;52.630;4.896;2023-07-30T01:42:33;12.10;;;2.85;;
66874;SDS011;53784;52.630;4.896;2023-07-30T01:44:58;17.05;;;3.10;;
66874;SDS011;53784;52.630;4.896;2023-07-30T01:47:23;15.05;;;3.05;;
66874;SDS011;53784;52.630;4.896;2023-07-30T01:49:48;20.17;;;2.90;;
66874;SDS011;53784;52.630;4.896;2023-07-30T01:52:15;16.40;;;2.60;;
66874;SDS011;53784;52.630;4.896;2023-07-30T01:54:40;15.68;;;2.75;;
66874;SDS011;53784;52.630;4.896;2023-07-30T01:57:07;14.32;;;2.50;;
66874;SDS011;53784;52.630;4.896;2023-07-30T01:59:32;13.77;;;2.60;;
66874;SDS011;53784;52.630;4.896;2023-07-30T02:01:58;14.43;;;2.70;;
66874;SDS011;53784;52.630;4.896;2023-07-30T02:04:23;14.65;;;2.90;;
66874;SDS011;53784;52.630;4.896;2023-07-30T02:06:48;14.93;;;2.42;;
66874;SDS011;53784;52.630;4.896;2023-07-30T02:09:14;11.23;;;2.25;;
66874;SDS011;53784;52.630;4.896;2023-07-30T02:11:39;13.18;;;2.35;;
66874;SDS011;53784;52.630;4.896;2023-07-30T02:14:04;15.88;;;2.28;;
66874;SDS011;53784;52.630;4.896;2023-07-30T02:16:29;18.40;;;2.35;;
66874;SDS011;53784;52.630;4.896;2023-07-30T02:18:55;10.88;;;2.35;;
66874;SDS011;53784;52.630;4.896;2023-07-30T02:21:20;12.43;;;2.75;;
66874;SDS011;53784;52.630;4.896;2023-07-30T02:23:45;12.60;;;2.20;;
66874;SDS011;53784;52.630;4.896;2023-07-30T02:26:11;15.57;;;2.78;;
66874;SDS011;53784;52.630;4.896;2023-07-30T02:28:36;13.02;;;2.80;;
66874;SDS011;53784;52.630;4.896;2023-07-30T02:31:01;10.25;;;2.00;;
66874;SDS011;53784;52.630;4.896;2023-07-30T02:33:26;13.60;;;2.45;;
66874;SDS011;53784;52.630;4.896;2023-07-30T02:35:52;13.95;;;2.30;;
66874;SDS011;53784;52.630;4.896;2023-07-30T02:38:17;14.68;;;2.53;;
66874;SDS011;53784;52.630;4.896;2023-07-30T02:40:42;11.90;;;2.50;;
66874;SDS011;53784;52.630;4.896;2023-07-30T02:43:08;11.00;;;2.33;;
66874;SDS011;53784;52.630;4.896;2023-07-30T02:45:33;12.13;;;2.08;;
66874;SDS011;53784;52.630;4.896;2023-07-30T02:47:58;14.63;;;2.33;;
66874;SDS011;53784;52.630;4.896;2023-07-30T02:50:24;12.82;;;2.38;;
66874;SDS011;53784;52.630;4.896;2023-07-30T02:52:49;13.00;;;2.20;;
66874;SDS011;53784;52.630;4.896;2023-07-30T02:55:14;9.80;;;1.80;;
66874;SDS011;53784;52.630;4.896;2023-07-30T02:57:41;9.15;;;1.83;;
66874;SDS011;53784;52.630;4.896;2023-07-30T03:00:06;8.40;;;1.80;;
66874;SDS011;53784;52.630;4.896;2023-07-30T03:02:33;9.82;;;1.85;;
66874;SDS011;53784;52.630;4.896;2023-07-30T03:04:58;8.70;;;1.60;;
66874;SDS011;53784;52.630;4.896;2023-07-30T03:07:24;7.63;;;1.40;;
66874;SDS011;53784;52.630;4.896;2023-07-30T03:09:50;9.23;;;1.50;;
66874;SDS011;53784;52.630;4.896;2023-07-30T03:12:15;8.65;;;1.58;;
66874;SDS011;53784;52.630;4.896;2023-07-30T03:14:40;10.23;;;1.55;;
66874;SDS011;53784;52.630;4.896;2023-07-30T03:17:05;12.43;;;1.67;;
66874;SDS011;53784;52.630;4.896;2023-07-30T03:19:31;11.27;;;1.58;;
66874;SDS011;53784;52.630;4.896;2023-07-30T03:21:56;9.20;;;1.65;;
66874;SDS011;53784;52.630;4.896;2023-07-30T03:24:22;8.85;;;1.98;;
66874;SDS011;53784;52.630;4.896;2023-07-30T03:26:47;9.80;;;1.83;;
66874;SDS011;53784;52.630;4.896;2023-07-30T03:29:12;10.38;;;1.75;;
66874;SDS011;53784;52.630;4.896;2023-07-30T03:31:38;6.85;;;1.88;;
66874;SDS011;53784;52.630;4.896;2023-07-30T03:34:03;7.50;;;1.58;;
66874;SDS011;53784;52.630;4.896;2023-07-30T03:36:28;6.88;;;1.60;;
66874;SDS011;53784;52.630;4.896;2023-07-30T03:38:53;8.32;;;1.60;;
66874;SDS011;53784;52.630;4.896;2023-07-30T03:41:19;8.20;;;1.60;;
66874;SDS011;53784;52.630;4.896;2023-07-30T03:43:44;9.82;;;1.80;;
66874;SDS011;53784;52.630;4.896;2023-07-30T03:46:09;8.57;;;2.00;;
66874;SDS011;53784;52.630;4.896;2023-07-30T03:48:35;10.55;;;2.00;;
66874;SDS011;53784;52.630;4.896;2023-07-30T03:51:00;12.65;;;1.80;;
66874;SDS011;53784;52.630;4.896;2023-07-30T03:53:25;11.18;;;1.83;;
66874;SDS011;53784;52.630;4.896;2023-07-30T03:55:51;8.55;;;1.75;;
66874;SDS011;53784;52.630;4.896;2023-07-30T03:58:16;12.40;;;1.90;;
66874;SDS011;53784;52.630;4.896;2023-07-30T04:00:41;7.28;;;1.70;;
66874;SDS011;53784;52.630;4.896;2023-07-30T04:03:07;6.78;;;1.40;;
66874;SDS011;53784;52.630;4.896;2023-07-30T04:05:32;8.07;;;1.73;;
66874;SDS011;53784;52.630;4.896;2023-07-30T04:07:58;8.88;;;1.58;;
66874;SDS011;53784;52.630;4.896;2023-07-30T04:10:24;9.57;;;1.98;;
66874;SDS011;53784;52.630;4.896;2023-07-30T04:12:49;8.68;;;1.77;;
66874;SDS011;53784;52.630;4.896;2023-07-30T04:15:15;8.85;;;1.70;;
66874;SDS011;53784;52.630;4.896;2023-07-30T04:17:40;9.60;;;2.05;;
66874;SDS011;53784;52.630;4.896;2023-07-30T04:20:06;7.07;;;1.95;;
66874;SDS011;53784;52.630;4.896;2023-07-30T04:22:32;11.40;;;1.88;;
66874;SDS011;53784;52.630;4.896;2023-07-30T04:24:58;6.65;;;1.63;;
66874;SDS011;53784;52.630;4.896;2023-07-30T04:27:23;9.95;;;1.83;;
66874;SDS011;53784;52.630;4.896;2023-07-30T04:29:48;9.02;;;1.65;;
66874;SDS011;53784;52.630;4.896;2023-07-30T04:32:14;6.45;;;1.45;;
66874;SDS011;53784;52.630;4.896;2023-07-30T04:34:39;7.78;;;1.70;;
66874;SDS011;53784;52.630;4.896;2023-07-30T04:37:05;9.85;;;2.00;;
66874;SDS011;53784;52.630;4.896;2023-07-30T04:39:31;7.10;;;1.48;;
66874;SDS011;53784;52.630;4.896;2023-07-30T04:41:57;7.88;;;1.60;;
66874;SDS011;53784;52.630;4.896;2023-07-30T04:44:23;7.70;;;1.60;;
66874;SDS011;53784;52.630;4.896;2023-07-30T04:46:48;8.55;;;1.65;;
66874;SDS011;53784;52.630;4.896;2023-07-30T04:49:13;9.00;;;1.75;;
66874;SDS011;53784;52.630;4.896;2023-07-30T04:51:39;9.30;;;1.83;;
66874;SDS011;53784;52.630;4.896;2023-07-30T04:54:04;6.82;;;1.60;;
66874;SDS011;53784;52.630;4.896;2023-07-30T04:56:29;10.10;;;1.50;;
66874;SDS011;53784;52.630;4.896;2023-07-30T04:58:55;12.15;;;2.38;;
66874;SDS011;53784;52.630;4.896;2023-07-30T05:01:20;9.30;;;1.70;;
66874;SDS011;53784;52.630;4.896;2023-07-30T05:03:46;8.40;;;1.77;;
66874;SDS011;53784;52.630;4.896;2023-07-30T05:06:11;15.60;;;1.80;;
66874;SDS011;53784;52.630;4.896;2023-07-30T05:08:36;9.30;;;1.65;;
66874;SDS011;53784;52.630;4.896;2023-07-30T05:11:01;12.15;;;1.88;;
66874;SDS011;53784;52.630;4.896;2023-07-30T05:13:27;8.18;;;2.00;;
66874;SDS011;53784;52.630;4.896;2023-07-30T05:15:52;9.05;;;1.60;;
66874;SDS011;53784;52.630;4.896;2023-07-30T05:18:17;11.27;;;1.98;;
66874;SDS011;53784;52.630;4.896;2023-07-30T05:20:45;12.38;;;1.80;;
66874;SDS011;53784;52.630;4.896;2023-07-30T05:23:11;7.07;;;1.65;;
66874;SDS011;53784;52.630;4.896;2023-07-30T05:25:36;6.57;;;1.40;;
66874;SDS011;53784;52.630;4.896;2023-07-30T05:28:01;11.10;;;1.65;;
66874;SDS011;53784;52.630;4.896;2023-07-30T05:30:27;10.93;;;1.67;;
66874;SDS011;53784;52.630;4.896;2023-07-30T05:32:52;10.15;;;1.40;;
66874;SDS011;53784;52.630;4.896;2023-07-30T05:35:17;8.70;;;1.58;;
66874;SDS011;53784;52.630;4.896;2023-07-30T05:37:43;11.65;;;1.75;;
66874;SDS011;53784;52.630;4.896;2023-07-30T05:40:09;6.97;;;1.80;;
66874;SDS011;53784;52.630;4.896;2023-07-30T05:42:34;5.45;;;1.42;;
66874;SDS011;53784;52.630;4.896;2023-07-30T05:45:00;11.63;;;1.55;;
66874;SDS011;53784;52.630;4.896;2023-07-30T05:47:25;12.98;;;1.80;;
66874;SDS011;53784;52.630;4.896;2023-07-30T05:49:50;8.60;;;1.92;;
66874;SDS011;53784;52.630;4.896;2023-07-30T05:52:16;11.60;;;1.90;;
66874;SDS011;53784;52.630;4.896;2023-07-30T05:54:41;9.80;;;1.77;;
66874;SDS011;53784;52.630;4.896;2023-07-30T05:57:06;7.68;;;1.52;;
66874;SDS011;53784;52.630;4.896;2023-07-30T05:59:32;9.18;;;1.80;;
66874;SDS011;53784;52.630;4.896;2023-07-30T06:01:57;10.27;;;1.75;;
66874;SDS011;53784;52.630;4.896;2023-07-30T06:04:27;10.63;;;1.80;;
66874;SDS011;53784;52.630;4.896;2023-07-30T06:06:53;11.52;;;1.60;;
66874;SDS011;53784;52.630;4.896;2023-07-30T06:09:18;11.10;;;1.70;;
66874;SDS011;53784;52.630;4.896;2023-07-30T06:11:43;9.45;;;1.70;;
66874;SDS011;53784;52.630;4.896;2023-07-30T06:14:09;8.70;;;1.65;;
66874;SDS011;53784;52.630;4.896;2023-07-30T06:16:34;10.27;;;1.60;;
66874;SDS011;53784;52.630;4.896;2023-07-30T06:18:59;8.85;;;1.75;;
66874;SDS011;53784;52.630;4.896;2023-07-30T06:21:25;7.60;;;1.70;;
66874;SDS011;53784;52.630;4.896;2023-07-30T06:23:50;11.43;;;1.70;;
66874;SDS011;53784;52.630;4.896;2023-07-30T06:26:15;8.57;;;1.90;;
66874;SDS011;53784;52.630;4.896;2023-07-30T06:28:41;9.75;;;1.85;;
66874;SDS011;53784;52.630;4.896;2023-07-30T06:31:06;10.20;;;1.83;;
66874;SDS011;53784;52.630;4.896;2023-07-30T06:33:31;8.75;;;1.70;;
66874;SDS011;53784;52.630;4.896;2023-07-30T06:35:57;9.80;;;1.65;;
66874;SDS011;53784;52.630;4.896;2023-07-30T06:38:22;8.85;;;1.70;;
66874;SDS011;53784;52.630;4.896;2023-07-30T06:40:47;8.57;;;2.10;;
66874;SDS011;53784;52.630;4.896;2023-07-30T06:43:13;9.32;;;1.83;;
66874;SDS011;53784;52.630;4.896;2023-07-30T06:45:38;6.97;;;1.50;;
66874;SDS011;53784;52.630;4.896;2023-07-30T06:48:04;6.35;;;1.40;;
66874;SDS011;53784;52.630;4.896;2023-07-30T06:50:29;7.13;;;1.60;;
66874;SDS011;53784;52.630;4.896;2023-07-30T06:52:54;6.57;;;1.40;;
66874;SDS011;53784;52.630;4.896;2023-07-30T06:55:20;7.72;;;1.75;;
66874;SDS011;53784;52.630;4.896;2023-07-30T06:57:45;8.90;;;2.00;;
66874;SDS011;53784;52.630;4.896;2023-07-30T07:00:11;6.47;;;1.55;;
66874;SDS011;53784;52.630;4.896;2023-07-30T07:02:36;11.80;;;1.60;;
66874;SDS011;53784;52.630;4.896;2023-07-30T07:05:02;9.93;;;1.88;;
66874;SDS011;53784;52.630;4.896;2023-07-30T07:07:27;9.45;;;1.70;;
66874;SDS011;53784;52.630;4.896;2023-07-30T07:09:52;8.00;;;2.00;;
66874;SDS011;53784;52.630;4.896;2023-07-30T07:12:18;10.80;;;1.77;;
66874;SDS011;53784;52.630;4.896;2023-07-30T07:14:43;9.30;;;1.67;;
66874;SDS011;53784;52.630;4.896;2023-07-30T07:17:08;8.43;;;1.70;;
66874;SDS011;53784;52.630;4.896;2023-07-30T07:19:34;11.75;;;2.05;;
66874;SDS011;53784;52.630;4.896;2023-07-30T07:22:02;7.72;;;1.50;;
66874;SDS011;53784;52.630;4.896;2023-07-30T07:24:30;7.38;;;1.40;;
66874;SDS011;53784;52.630;4.896;2023-07-30T07:26:56;14.48;;;2.10;;
66874;SDS011;53784;52.630;4.896;2023-07-30T07:29:21;11.38;;;2.10;;
66874;SDS011;53784;52.630;4.896;2023-07-30T07:31:47;10.25;;;1.90;;
66874;SDS011;53784;52.630;4.896;2023-07-30T07:34:12;7.15;;;1.60;;
66874;SDS011;53784;52.630;4.896;2023-07-30T07:36:37;12.98;;;1.80;;
66874;SDS011;53784;52.630;4.896;2023-07-30T07:39:03;11.18;;;1.60;;
66874;SDS011;53784;52.630;4.896;2023-07-30T07:41:28;8.07;;;1.55;;
66874;SDS011;53784;52.630;4.896;2023-07-30T07:43:54;10.80;;;1.90;;
66874;SDS011;53784;52.630;4.896;2023-07-30T07:46:19;8.00;;;1.50;;
66874;SDS011;53784;52.630;4.896;2023-07-30T07:48:44;9.60;;;1.70;;
66874;SDS011;53784;52.630;4.896;2023-07-30T07:51:10;8.48;;;1.55;;
66874;SDS011;53784;52.630;4.896;2023-07-30T07:53:36;9.32;;;1.67;;
66874;SDS011;53784;52.630;4.896;2023-07-30T07:56:02;6.75;;;1.73;;
66874;SDS011;53784;52.630;4.896;2023-07-30T07:58:28;7.43;;;1.20;;
66874;SDS011;53784;52.630;4.896;2023-07-30T08:00:54;6.07;;;1.33;;
66874;SDS011;53784;52.630;4.896;2023-07-30T08:03:20;7.32;;;1.60;;
66874;SDS011;53784;52.630;4.896;2023-07-30T08:05:45;5.93;;;1.40;;
66874;SDS011;53784;52.630;4.896;2023-07-30T08:08:11;5.03;;;1.45;;
66874;SDS011;53784;52.630;4.896;2023-07-30T08:10:39;10.52;;;1.60;;
66874;SDS011;53784;52.630;4.896;2023-07-30T08:13:07;7.30;;;1.35;;
66874;SDS011;53784;52.630;4.896;2023-07-30T08:15:33;7.28;;;1.50;;
66874;SDS011;53784;52.630;4.896;2023-07-30T08:17:58;7.32;;;1.58;;
66874;SDS011;53784;52.630;4.896;2023-07-30T08:20:23;7.45;;;1.60;;
66874;SDS011;53784;52.630;4.896;2023-07-30T08:22:48;6.55;;;1.48;;
66874;SDS011;53784;52.630;4.896;2023-07-30T08:25:14;7.63;;;1.85;;
66874;SDS011;53784;52.630;4.896;2023-07-30T08:27:39;9.70;;;1.60;;
66874;SDS011;53784;52.630;4.896;2023-07-30T08:30:05;9.50;;;1.88;;
66874;SDS011;53784;52.630;4.896;2023-07-30T08:32:30;7.78;;;1.67;;
66874;SDS011;53784;52.630;4.896;2023-07-30T08:34:57;8.55;;;1.60;;
66874;SDS011;53784;52.630;4.896;2023-07-30T08:37:23;6.07;;;1.83;;
66874;SDS011;53784;52.630;4.896;2023-07-30T08:39:48;7.97;;;1.80;;
66874;SDS011;53784;52.630;4.896;2023-07-30T08:42:13;7.73;;;2.00;;
66874;SDS011;53784;52.630;4.896;2023-07-30T08:44:39;7.22;;;1.65;;
66874;SDS011;53784;52.630;4.896;2023-07-30T08:47:04;6.65;;;1.80;;
66874;SDS011;53784;52.630;4.896;2023-07-30T08:49:30;7.78;;;2.00;;
66874;SDS011;53784;52.630;4.896;2023-07-30T08:51:58;7.40;;;1.88;;
66874;SDS011;53784;52.630;4.896;2023-07-30T08:54:24;7.75;;;1.80;;
66874;SDS011;53784;52.630;4.896;2023-07-30T08:56:50;5.95;;;1.58;;
66874;SDS011;53784;52.630;4.896;2023-07-30T08:59:16;7.07;;;1.70;;
66874;SDS011;53784;52.630;4.896;2023-07-30T09:01:42;6.90;;;1.83;;
66874;SDS011;53784;52.630;4.896;2023-07-30T09:04:08;7.45;;;2.10;;
66874;SDS011;53784;52.630;4.896;2023-07-30T09:06:34;8.15;;;1.67;;
66874;SDS011;53784;52.630;4.896;2023-07-30T09:08:59;7.10;;;1.80;;
66874;SDS011;53784;52.630;4.896;2023-07-30T09:11:27;8.27;;;1.77;;
66874;SDS011;53784;52.630;4.896;2023-07-30T09:13:53;6.60;;;1.88;;
66874;SDS011;53784;52.630;4.896;2023-07-30T09:16:23;7.13;;;2.10;;
66874;SDS011;53784;52.630;4.896;2023-07-30T09:18:49;9.60;;;1.70;;
66874;SDS011;53784;52.630;4.896;2023-07-30T09:21:15;8.30;;;2.00;;
66874;SDS011;53784;52.630;4.896;2023-07-30T09:23:41;11.18;;;1.98;;
66874;SDS011;53784;52.630;4.896;2023-07-30T09:26:07;6.80;;;1.90;;
66874;SDS011;53784;52.630;4.896;2023-07-30T09:28:32;9.98;;;2.00;;
66874;SDS011;53784;52.630;4.896;2023-07-30T09:31:01;7.47;;;1.80;;
66874;SDS011;53784;52.630;4.896;2023-07-30T09:33:27;8.70;;;2.17;;
66874;SDS011;53784;52.630;4.896;2023-07-30T09:35:52;6.87;;;1.97;;
66874;SDS011;53784;52.630;4.896;2023-07-30T09:38:18;7.35;;;2.00;;
66874;SDS011;53784;52.630;4.896;2023-07-30T09:40:45;8.38;;;2.40;;
66874;SDS011;53784;52.630;4.896;2023-07-30T09:43:12;6.95;;;2.10;;
66874;SDS011;53784;52.630;4.896;2023-07-30T09:45:38;5.73;;;2.10;;
66874;SDS011;53784;52.630;4.896;2023-07-30T09:48:04;6.15;;;2.00;;
66874;SDS011;53784;52.630;4.896;2023-07-30T09:50:30;7.00;;;2.05;;
66874;SDS011;53784;52.630;4.896;2023-07-30T09:52:55;6.70;;;1.90;;
66874;SDS011;53784;52.630;4.896;2023-07-30T09:55:21;6.15;;;1.80;;
66874;SDS011;53784;52.630;4.896;2023-07-30T09:57:46;7.30;;;2.10;;
66874;SDS011;53784;52.630;4.896;2023-07-30T10:00:12;7.55;;;1.65;;
66874;SDS011;53784;52.630;4.896;2023-07-30T10:02:38;6.28;;;1.90;;
66874;SDS011;53784;52.630;4.896;2023-07-30T10:05:16;5.22;;;1.58;;
66874;SDS011;53784;52.630;4.896;2023-07-30T10:07:53;6.03;;;1.45;;
66874;SDS011;53784;52.630;4.896;2023-07-30T10:10:22;6.47;;;1.83;;
66874;SDS011;53784;52.630;4.896;2023-07-30T10:12:49;7.60;;;1.77;;
66874;SDS011;53784;52.630;4.896;2023-07-30T10:15:18;7.55;;;1.80;;
66874;SDS011;53784;52.630;4.896;2023-07-30T10:17:48;6.45;;;1.60;;
66874;SDS011;53784;52.630;4.896;2023-07-30T10:20:22;7.28;;;1.70;;
66874;SDS011;53784;52.630;4.896;2023-07-30T10:22:52;7.40;;;1.90;;
66874;SDS011;53784;52.630;4.896;2023-07-30T10:25:20;10.43;;;1.80;;
66874;SDS011;53784;52.630;4.896;2023-07-30T10:27:55;7.13;;;1.77;;
66874;SDS011;53784;52.630;4.896;2023-07-30T10:30:21;10.23;;;1.73;;
66874;SDS011;53784;52.630;4.896;2023-07-30T10:35:38;6.28;;;1.50;;
66874;SDS011;53784;52.630;4.896;2023-07-30T10:38:18;7.95;;;1.73;;
66874;SDS011;53784;52.630;4.896;2023-07-30T10:40:59;6.78;;;1.63;;
66874;SDS011;53784;52.630;4.896;2023-07-30T10:43:29;8.82;;;1.98;;
66874;SDS011;53784;52.630;4.896;2023-07-30T10:45:55;6.53;;;1.90;;
66874;SDS011;53784;52.630;4.896;2023-07-30T10:48:29;7.63;;;1.80;;
66874;SDS011;53784;52.630;4.896;2023-07-30T10:50:56;5.78;;;1.75;;
66874;SDS011;53784;52.630;4.896;2023-07-30T10:53:21;8.40;;;1.80;;
66874;SDS011;53784;52.630;4.896;2023-07-30T10:55:46;6.77;;;1.80;;
66874;SDS011;53784;52.630;4.896;2023-07-30T10:58:13;6.18;;;1.60;;
66874;SDS011;53784;52.630;4.896;2023-07-30T11:00:39;6.97;;;1.60;;
66874;SDS011;53784;52.630;4.896;2023-07-30T11:03:04;8.02;;;1.75;;
66874;SDS011;53784;52.630;4.896;2023-07-30T11:05:29;9.10;;;1.90;;
66874;SDS011;53784;52.630;4.896;2023-07-30T11:07:55;7.10;;;1.60;;
66874;SDS011;53784;52.630;4.896;2023-07-30T11:10:21;8.30;;;1.63;;
66874;SDS011;53784;52.630;4.896;2023-07-30T11:12:48;6.65;;;1.70;;
66874;SDS011;53784;52.630;4.896;2023-07-30T11:15:14;8.82;;;1.90;;
66874;SDS011;53784;52.630;4.896;2023-07-30T11:17:39;8.75;;;1.90;;
66874;SDS011;53784;52.630;4.896;2023-07-30T11:20:05;10.07;;;1.77;;
66874;SDS011;53784;52.630;4.896;2023-07-30T11:22:32;9.95;;;1.48;;
66874;SDS011;53784;52.630;4.896;2023-07-30T11:24:59;8.77;;;1.70;;
66874;SDS011;53784;52.630;4.896;2023-07-30T11:27:26;8.32;;;1.63;;
66874;SDS011;53784;52.630;4.896;2023-07-30T11:29:57;7.90;;;1.50;;
66874;SDS011;53784;52.630;4.896;2023-07-30T11:32:23;6.65;;;1.50;;
66874;SDS011;53784;52.630;4.896;2023-07-30T11:34:51;6.97;;;1.55;;
66874;SDS011;53784;52.630;4.896;2023-07-30T11:37:17;8.27;;;1.60;;
66874;SDS011;53784;52.630;4.896;2023-07-30T11:39:42;6.60;;;1.50;;
66874;SDS011;53784;52.630;4.896;2023-07-30T11:42:07;4.32;;;1.33;;
66874;SDS011;53784;52.630;4.896;2023-07-30T11:44:34;5.60;;;1.40;;
66874;SDS011;53784;52.630;4.896;2023-07-30T11:47:03;9.50;;;1.75;;
66874;SDS011;53784;52.630;4.896;2023-07-30T11:49:29;8.80;;;1.67;;
66874;SDS011;53784;52.630;4.896;2023-07-30T11:52:07;8.98;;;1.70;;
66874;SDS011;53784;52.630;4.896;2023-07-30T11:54:35;10.32;;;1.90;;
66874;SDS011;53784;52.630;4.896;2023-07-30T11:57:01;9.45;;;1.90;;
66874;SDS011;53784;52.630;4.896;2023-07-30T11:59:26;7.35;;;1.83;;
66874;SDS011;53784;52.630;4.896;2023-07-30T12:01:52;7.88;;;1.60;;
66874;SDS011;53784;52.630;4.896;2023-07-30T12:04:17;6.65;;;1.50;;
66874;SDS011;53784;52.630;4.896;2023-07-30T12:06:43;7.93;;;1.70;;
66874;SDS011;53784;52.630;4.896;2023-07-30T12:09:14;7.47;;;1.52;;
66874;SDS011;53784;52.630;4.896;2023-07-30T12:11:44;9.38;;;1.80;;
66874;SDS011;53784;52.630;4.896;2023-07-30T12:14:17;8.52;;;1.60;;
66874;SDS011;53784;52.630;4.896;2023-07-30T12:16:43;8.40;;;1.88;;
66874;SDS011;53784;52.630;4.896;2023-07-30T12:19:08;6.85;;;1.60;;
66874;SDS011;53784;52.630;4.896;2023-07-30T12:21:33;9.87;;;1.80;;
66874;SDS011;53784;52.630;4.896;2023-07-30T12:23:59;7.63;;;1.60;;
66874;SDS011;53784;52.630;4.896;2023-07-30T12:26:24;6.95;;;1.50;;
66874;SDS011;53784;52.630;4.896;2023-07-30T12:28:49;8.27;;;1.55;;
66874;SDS011;53784;52.630;4.896;2023-07-30T12:31:15;6.40;;;1.52;;
66874;SDS011;53784;52.630;4.896;2023-07-30T12:33:40;7.73;;;1.60;;
66874;SDS011;53784;52.630;4.896;2023-07-30T12:36:05;6.22;;;1.55;;
66874;SDS011;53784;52.630;4.896;2023-07-30T12:38:31;7.68;;;1.50;;
66874;SDS011;53784;52.630;4.896;2023-07-30T12:40:56;6.63;;;1.52;;
66874;SDS011;53784;52.630;4.896;2023-07-30T12:43:21;8.80;;;1.73;;
66874;SDS011;53784;52.630;4.896;2023-07-30T12:45:47;6.35;;;1.52;;
66874;SDS011;53784;52.630;4.896;2023-07-30T12:48:12;10.20;;;1.80;;
66874;SDS011;53784;52.630;4.896;2023-07-30T12:50:38;8.20;;;1.42;;
66874;SDS011;53784;52.630;4.896;2023-07-30T12:53:03;7.25;;;1.63;;
66874;SDS011;53784;52.630;4.896;2023-07-30T12:55:29;9.85;;;1.95;;
66874;SDS011;53784;52.630;4.896;2023-07-30T12:57:54;12.63;;;2.03;;
66874;SDS011;53784;52.630;4.896;2023-07-30T13:00:19;7.72;;;1.58;;
66874;SDS011;53784;52.630;4.896;2023-07-30T13:02:45;7.10;;;1.60;;
66874;SDS011;53784;52.630;4.896;2023-07-30T13:05:10;6.75;;;1.40;;
66874;SDS011;53784;52.630;4.896;2023-07-30T13:07:35;8.23;;;1.40;;
66874;SDS011;53784;52.630;4.896;2023-07-30T13:10:04;6.88;;;1.35;;
66874;SDS011;53784;52.630;4.896;2023-07-30T13:12:31;6.72;;;1.50;;
66874;SDS011;53784;52.630;4.896;2023-07-30T13:14:56;6.57;;;1.30;;
66874;SDS011;53784;52.630;4.896;2023-07-30T13:17:21;6.35;;;1.30;;
66874;SDS011;53784;52.630;4.896;2023-07-30T13:19:47;7.82;;;1.38;;
66874;SDS011;53784;52.630;4.896;2023-07-30T13:22:12;7.35;;;1.27;;
66874;SDS011;53784;52.630;4.896;2023-07-30T13:24:37;5.60;;;1.40;;
66874;SDS011;53784;52.630;4.896;2023-07-30T13:27:04;8.30;;;1.55;;
66874;SDS011;53784;52.630;4.896;2023-07-30T13:29:29;6.93;;;1.50;;
66874;SDS011;53784;52.630;4.896;2023-07-30T13:31:55;8.75;;;1.83;;
66874;SDS011;53784;52.630;4.896;2023-07-30T13:34:21;8.07;;;1.80;;
66874;SDS011;53784;52.630;4.896;2023-07-30T13:36:46;9.07;;;1.58;;
66874;SDS011;53784;52.630;4.896;2023-07-30T13:39:11;8.77;;;1.63;;
66874;SDS011;53784;52.630;4.896;2023-07-30T13:41:37;7.40;;;1.50;;
66874;SDS011;53784;52.630;4.896;2023-07-30T13:44:02;8.13;;;1.50;;
66874;SDS011;53784;52.630;4.896;2023-07-30T13:46:27;7.35;;;1.88;;
66874;SDS011;53784;52.630;4.896;2023-07-30T13:48:53;8.75;;;1.52;;
66874;SDS011;53784;52.630;4.896;2023-07-30T13:51:18;7.55;;;1.70;;
66874;SDS011;53784;52.630;4.896;2023-07-30T13:53:43;10.27;;;1.60;;
66874;SDS011;53784;52.630;4.896;2023-07-30T13:56:09;7.03;;;1.45;;
66874;SDS011;53784;52.630;4.896;2023-07-30T13:58:34;6.82;;;1.70;;
66874;SDS011;53784;52.630;4.896;2023-07-30T14:00:59;7.53;;;1.48;;
66874;SDS011;53784;52.630;4.896;2023-07-30T14:03:25;9.60;;;1.67;;
66874;SDS011;53784;52.630;4.896;2023-07-30T14:05:50;7.15;;;1.40;;
66874;SDS011;53784;52.630;4.896;2023-07-30T14:08:15;6.10;;;1.30;;
66874;SDS011;53784;52.630;4.896;2023-07-30T14:10:40;7.40;;;1.40;;
66874;SDS011;53784;52.630;4.896;2023-07-30T14:13:06;7.63;;;1.65;;
66874;SDS011;53784;52.630;4.896;2023-07-30T14:15:31;4.55;;;1.40;;
66874;SDS011;53784;52.630;4.896;2023-07-30T14:17:57;7.63;;;1.42;;
66874;SDS011;53784;52.630;4.896;2023-07-30T14:20:23;4.93;;;1.30;;
66874;SDS011;53784;52.630;4.896;2023-07-30T14:22:48;5.95;;;1.67;;
66874;SDS011;53784;52.630;4.896;2023-07-30T14:25:14;6.82;;;1.45;;
66874;SDS011;53784;52.630;4.896;2023-07-30T14:27:39;7.78;;;1.63;;
66874;SDS011;53784;52.630;4.896;2023-07-30T14:30:05;7.80;;;1.58;;
66874;SDS011;53784;52.630;4.896;2023-07-30T14:32:31;6.45;;;1.40;;
66874;SDS011;53784;52.630;4.896;2023-07-30T14:34:56;6.95;;;1.45;;
66874;SDS011;53784;52.630;4.896;2023-07-30T14:37:21;7.45;;;1.30;;